NCAR-RAP Real-Time Weather Data

Output produced by METARs form (14 October 2019  23:47 UTC)
found at http://weather.rap.ucar.edu/surface/
 
KBWI 142254Z 22003KT 10SM CLR 20/04 A2997 RMK AO2 SLP149 T02000044
KBWI 142154Z 25004KT 10SM CLR 23/04 A2996 RMK AO2 SLP145 T02280044
KBWI 142054Z 25009G16KT 10SM CLR 24/03 A2995 RMK AO2 SLP142 T02390033 56013
KBWI 141954Z 24012KT 10SM CLR 24/03 A2995 RMK AO2 SLP142 T02440028
KBWI 141854Z 23010KT 10SM CLR 24/03 A2996 RMK AO2 SLP145 T02390028
KBWI 141754Z 31009KT 10SM CLR 24/03 A2999 RMK AO2 SLP154 T02440033 10244 20094 58018
KBWI 141654Z 31010KT 10SM CLR 23/04 A3001 RMK AO2 SLP163 T02330039
KBWI 141554Z 27010G16KT 10SM CLR 22/05 A3003 RMK AO2 SLP167 T02220050
KBWI 141454Z 27008KT 10SM FEW250 21/07 A3004 RMK AO2 SLP173 T02060067 50009
KBWI 141354Z VRB04KT 8SM CLR 17/11 A3004 RMK AO2 SLP173 T01670106
KBWI 141254Z 28003KT 7SM FEW250 13/11 A3004 RMK AO2 SLP171 T01330106
KBWI 141154Z 00000KT 6SM BR FEW250 09/09 A3002 RMK AO2 SLP164 T00940089 10139 20083 51018
KBWI 141054Z 28003KT 7SM FEW080 09/09 A3000 RMK AO2 SLP159 T00940089
KBWI 140954Z 27005KT 7SM FEW010 FEW250 08/08 A2998 RMK AO2 SLP151 T00830078
KBWI 140854Z 30003KT 7SM FEW010 FEW250 10/09 A2996 RMK AO2 SLP146 T01000094 55005
KBWI 140754Z 28003KT 9SM FEW250 12/11 A2996 RMK AO2 SLP143 T01170106
KBWI 140654Z 00000KT 10SM FEW023 FEW250 13/12 A2997 RMK AO2 SLP147 T01280117
KBWI 140554Z 00000KT 10SM SCT023 SCT250 14/12 A2998 RMK AO2 SLP152 T01390122 10161 20139 58006
KBWI 140454Z 00000KT 10SM FEW019 BKN026 16/13 A3000 RMK AO2 SLP157 T01560128 401890106
KBWI 140354Z 00000KT 10SM SCT020 OVC028 16/13 A3001 RMK AO2 SLP160 T01610128
KBWI 140254Z 07003KT 10SM BKN020 OVC027 16/13 A3000 RMK AO2 SLP158 T01560128 58006
KBWI 140154Z 08004KT 10SM OVC020 16/12 A3000 RMK AO2 SLP160 T01610122
KBWI 140054Z 07004KT 10SM BKN022 OVC030 16/11 A3002 RMK AO2 SLP164 T01560111
KBWI 132354Z 11006KT 10SM FEW022 BKN025 OVC035 16/11 A3002 RMK AO2 SLP164 T01560106 10183 20150 56006
KBWI 132344Z 10006KT 10SM FEW022 BKN025 OVC035 16/10 A3002 RMK AO2 T01560100
KBWI 132333Z COR 10005KT 10SM BKN027 OVC035 16/10 A3002 RMK AO2 T01560100
KBWI 132254Z 00000KT 10SM SCT027 OVC035 15/09 A3002 RMK AO2 SLP166 T01500094
KBWI 132237Z 13004KT 10SM SCT027 OVC035 15/09 A3003 RMK AO2 T01500094
KBWI 132154Z 13005KT 10SM FEW022 BKN028 OVC035 15/09 A3002 RMK AO2 SLP166 T01500089
KBWI 132103Z 14005KT 10SM FEW022 BKN028 OVC035 16/08 A3003 RMK AO2 T01610078
KBWI 132054Z 15005KT 10SM SCT028 BKN035 OVC080 16/08 A3004 RMK AO2 SLP170 T01610078 56008
KBWI 131954Z 11005KT 10SM SCT028 BKN035 OVC080 17/07 A3004 RMK AO2 SLP170 T01720067
KBWI 131854Z 10008KT 10SM SCT029 BKN035 OVC080 18/07 A3005 RMK AO2 SLP174 T01780072
KBWI 131754Z VRB06KT 10SM BKN043 BKN080 OVC100 18/06 A3006 RMK AO2 SLP179 60000 T01780056 10189 20122 58016
KBWI 131654Z 04007KT 10SM FEW046 BKN055 BKN095 BKN250 19/06 A3008 RMK AO2 SLP185 T01890061
KBWI 131554Z 08007KT 10SM FEW055 SCT065 SCT090 BKN250 17/04 A3010 RMK AO2 SLP192 T01670044
KBWI 131454Z 09009KT 10SM FEW060 SCT090 BKN250 16/03 A3011 RMK AO2 SLP195 60000 T01560028 58006
KBWI 131354Z 04005KT 10SM BKN065 BKN090 BKN250 14/02 A3012 RMK AO2 SLP199 ACC E-NW T01440022
KBWI 131254Z 02005KT 10SM FEW044 BKN065 BKN090 BKN250 13/02 A3013 RMK AO2 RAE11 SLP202 ACC SW-N P0000 T01280022
KBWI 131154Z 35004KT 10SM -RA FEW044 BKN075 BKN095 BKN250 12/04 A3013 RMK AO2 RAB52 SLP202 ACC ALQDS P0000 60000 T01220039 10144 20106 53011
KBWI 131054Z 03005KT 10SM FEW049 BKN075 BKN095 OVC250 12/03 A3011 RMK AO2 SLP196 ACC ALQDS T01220033
KBWI 130954Z 00000KT 10SM SCT049 BKN080 OVC250 12/05 A3011 RMK AO2 SLP196 T01170050
KBWI 130854Z 00000KT 10SM SCT090 SCT250 12/04 A3010 RMK AO2 SLP191 T01170044 53008
KBWI 130754Z 33003KT 10SM SCT085 SCT250 12/04 A3007 RMK AO2 SLP183 T01220039
KBWI 130654Z 33006KT 10SM BKN048 BKN120 13/04 A3008 RMK AO2 SLP185 T01330044
KBWI 130554Z 31004KT 10SM BKN048 BKN120 14/05 A3007 RMK AO2 SLP182 T01390050 10172 20133 53012
KBWI 130454Z 34006KT 10SM BKN050 BKN120 BKN250 14/08 A3005 RMK AO2 SLP177 T01440078 402390094
KBWI 130354Z 32005KT 10SM FEW050 SCT120 SCT250 14/09 A3005 RMK AO2 SLP174 T01440089
KBWI 130254Z 28003KT 10SM FEW065 SCT120 SCT250 14/09 A3004 RMK AO2 SLP170 T01440094 51008
KBWI 130154Z 29005KT 10SM SCT120 16/11 A3003 RMK AO2 SLP167 T01560111
KBWI 130054Z 25004KT 10SM SCT120 17/12 A3002 RMK AO2 SLP166 T01670117
KBWI 122354Z 26004KT 10SM SCT120 17/11 A3001 RMK AO2 SLP162 60000 T01670111 10239 20167 53016